Time;durP1;ratioP1;P1;durP2;ratioP2;P2;SDS_P1;SDS_P2;PMS_P1;PMS_P2;Temp;Humidity;BMP_temperature;BMP_pressure;BME280_temperature;BME280_humidity;BME280_pressure;Samples;Min_cycle;Max_cycle;Signal;HPM_P1;HPM_P2
2023/01/10 00:00:33;;;;;;;0.20;0.20;;;;;;;0.86;100.00;92639.97;2056846;28;20026;-85
2023/01/10 00:38:45;;;;;;;1.30;0.50;;;;;;;0.83;100.00;92718.88;2065808;28;20053;-85
2023/01/10 00:39:46;;;;;;;1.48;0.40;;;;;;;0.77;100.00;92728.97;2066181;28;20052;-85
2023/01/10 00:40:47;;;;;;;1.55;0.50;;;;;;;0.73;100.00;92725.56;2056248;28;20022;-85
2023/01/10 00:44:34;;;;;;;3.20;0.80;;;;;;;0.93;100.00;92729.50;2077625;28;20029;-86
2023/01/10 00:45:38;;;;;;;2.13;0.55;;;;;;;1.17;100.00;92737.94;2078570;28;20033;-84
2023/01/10 00:46:39;;;;;;;2.05;0.43;;;;;;;1.17;100.00;92730.03;2071719;28;20036;-85
2023/01/10 00:47:40;;;;;;;2.30;0.70;;;;;;;0.97;100.00;92729.53;2058463;28;20476;-85
2023/01/10 00:48:41;;;;;;;3.83;0.52;;;;;;;0.89;100.00;92735.84;2070679;28;20049;-85
2023/01/10 00:49:44;;;;;;;1.92;0.70;;;;;;;0.93;100.00;92742.66;2065762;28;20050;-85
2023/01/10 00:50:46;;;;;;;2.30;0.70;;;;;;;0.94;100.00;92740.75;2056862;28;20035;-84
2023/01/10 00:51:56;;;;;;;1.20;0.70;;;;;;;1.04;100.00;92749.88;2056778;28;20031;-85
2023/01/10 00:53:05;;;;;;;0.95;0.57;;;;;;;1.00;100.00;92745.31;2058774;28;20094;-85
2023/01/10 00:54:12;;;;;;;2.00;0.70;;;;;;;1.03;100.00;92732.56;2065038;28;20369;-84
2023/01/10 00:55:20;;;;;;;2.35;0.80;;;;;;;0.95;100.00;92744.91;2066003;28;20822;-85
2023/01/10 00:56:21;;;;;;;3.20;0.93;;;;;;;0.97;100.00;92751.31;2065234;28;20486;-84
2023/01/10 00:57:21;;;;;;;2.13;0.70;;;;;;;1.06;100.00;92745.75;2071411;28;20026;-85
2023/01/10 00:58:32;;;;;;;3.72;0.98;;;;;;;0.93;100.00;92747.16;2071895;28;20038;-85
2023/01/10 00:59:41;;;;;;;1.80;0.70;;;;;;;0.92;100.00;92745.63;2065773;28;20038;-85
2023/01/10 01:00:49;;;;;;;2.17;0.70;;;;;;;0.95;100.00;92765.94;2065300;28;20056;-84
2023/01/10 01:01:51;;;;;;;3.55;0.88;;;;;;;1.02;100.00;92755.50;2057998;28;20464;-84
2023/01/10 01:02:56;;;;;;;0.65;0.60;;;;;;;1.01;100.00;92759.25;2056787;28;20026;-84
2023/01/10 01:03:58;;;;;;;3.45;1.00;;;;;;;1.07;100.00;92762.31;2065598;28;21064;-85
2023/01/10 01:04:59;;;;;;;1.63;0.98;;;;;;;0.85;100.00;92769.25;2064422;28;20471;-85
2023/01/10 01:06:07;;;;;;;1.10;0.60;;;;;;;0.85;100.00;92772.63;2072110;28;20049;-86
2023/01/10 01:07:14;;;;;;;1.30;0.77;;;;;;;1.06;100.00;92763.44;2072286;28;20025;-85
2023/01/10 01:08:18;;;;;;;1.45;0.80;;;;;;;1.06;100.00;92772.06;2073389;28;20025;-85
2023/01/10 01:09:22;;;;;;;1.38;0.80;;;;;;;0.89;100.00;92783.94;2072526;28;20018;-84
2023/01/10 01:10:26;;;;;;;2.45;0.65;;;;;;;0.89;100.00;92776.06;2049423;28;20031;-83
2023/01/10 01:11:28;;;;;;;0.63;0.60;;;;;;;0.95;100.00;92779.09;2057444;28;20186;-84
2023/01/10 01:12:29;;;;;;;4.43;0.80;;;;;;;1.02;100.00;92781.81;2064457;28;20033;-83
2023/01/10 01:13:30;;;;;;;3.83;0.80;;;;;;;0.83;100.00;92780.13;2072048;28;20478;-84
2023/01/10 01:14:38;;;;;;;2.35;0.70;;;;;;;0.94;100.00;92796.03;2063943;28;20030;-85
2023/01/10 01:15:40;;;;;;;3.67;1.00;;;;;;;0.97;100.00;92792.69;2066364;28;20019;-84
2023/01/10 01:16:41;;;;;;;3.50;0.80;;;;;;;1.02;100.00;92789.72;2064519;28;20164;-83
2023/01/10 01:17:42;;;;;;;3.85;0.90;;;;;;;0.96;100.00;92793.78;2064615;28;20026;-86
2023/01/10 01:18:43;;;;;;;1.73;0.60;;;;;;;0.98;100.00;92789.66;2064431;28;20049;-85
2023/01/10 01:19:44;;;;;;;3.28;0.80;;;;;;;0.98;100.00;92796.81;2072453;28;20034;-84
2023/01/10 01:20:46;;;;;;;3.00;0.90;;;;;;;0.91;100.00;92794.84;2064131;28;20038;-85
2023/01/10 01:21:47;;;;;;;3.40;1.20;;;;;;;0.80;100.00;92804.53;2064351;28;20026;-84
2023/01/10 01:22:48;;;;;;;5.03;1.00;;;;;;;0.77;100.00;92799.25;2064535;28;20875;-83
2023/01/10 01:23:49;;;;;;;4.60;1.00;;;;;;;0.85;100.00;92806.84;2055942;28;20026;-84
2023/01/10 01:24:50;;;;;;;5.05;0.80;;;;;;;0.78;100.00;92806.75;2056381;28;20037;-84
2023/01/10 01:25:53;;;;;;;3.30;0.90;;;;;;;0.75;100.00;92810.88;2064050;28;20092;-83
2023/01/10 01:26:54;;;;;;;2.50;0.60;;;;;;;0.98;100.00;92808.09;2060207;28;20034;-85
2023/01/10 01:27:55;;;;;;;2.83;0.93;;;;;;;0.78;100.00;92808.63;2064037;28;20603;-85
2023/01/10 01:28:55;;;;;;;3.08;0.90;;;;;;;0.73;100.00;92809.72;2056444;28;20047;-83
2023/01/10 01:29:58;;;;;;;3.80;1.45;;;;;;;0.77;100.00;92813.16;2064469;28;20066;-85
2023/01/10 01:30:59;;;;;;;3.38;0.90;;;;;;;1.21;100.00;92823.69;2064386;28;20113;-85
2023/01/10 01:31:59;;;;;;;3.15;1.10;;;;;;;0.98;100.00;92826.50;2056412;28;20035;-85
2023/01/10 01:33:00;;;;;;;3.15;0.60;;;;;;;0.89;100.00;92828.69;2064290;28;20030;-84
2023/01/10 01:34:02;;;;;;;2.35;0.60;;;;;;;0.98;100.00;92842.28;2064353;28;20652;-85
2023/01/10 01:35:04;;;;;;;1.88;0.68;;;;;;;1.04;100.00;92831.44;2074474;28;20033;-84
2023/01/10 01:36:10;;;;;;;1.35;0.80;;;;;;;0.98;100.00;92833.66;2072336;28;20542;-85
2023/01/10 01:37:11;;;;;;;4.05;0.95;;;;;;;0.89;100.00;92827.94;2081062;28;20108;-84
2023/01/10 01:38:13;;;;;;;3.30;0.85;;;;;;;0.88;100.00;92831.66;2074432;28;20032;-85
2023/01/10 01:39:14;;;;;;;3.80;0.90;;;;;;;1.01;100.00;92838.19;2059769;28;20417;-84
2023/01/10 01:40:19;;;;;;;2.25;0.68;;;;;;;1.05;100.00;92835.56;2056312;28;20130;-85
2023/01/10 01:42:40;;;;;;;2.63;0.68;;;;;;;1.00;100.00;92847.19;2066268;28;20029;-85
2023/01/10 01:44:15;;;;;;;1.00;0.70;;;;;;;1.04;100.00;92853.25;2055973;28;20427;-85
2023/01/10 01:45:16;;;;;;;3.17;0.57;;;;;;;0.96;100.00;92862.19;2050456;28;20057;-84
2023/01/10 01:46:17;;;;;;;0.60;0.60;;;;;;;0.84;100.00;92851.94;2060010;28;20026;-85
2023/01/10 01:47:25;;;;;;;1.42;0.60;;;;;;;1.03;100.00;92864.91;2053953;28;20173;-84
2023/01/10 01:48:32;;;;;;;1.35;0.50;;;;;;;0.90;100.00;92863.63;2074992;28;20037;-85
2023/01/10 01:49:39;;;;;;;3.05;0.60;;;;;;;0.81;100.00;92866.56;2067936;28;20061;-84
2023/01/10 01:50:50;;;;;;;0.50;0.50;;;;;;;0.89;100.00;92868.16;2060784;28;20030;-85
2023/01/10 01:51:58;;;;;;;2.35;0.50;;;;;;;0.87;100.00;92870.38;2062253;28;20038;-85
2023/01/10 01:53:03;;;;;;;0.82;0.40;;;;;;;0.88;100.00;92879.00;2054767;28;20031;-84
2023/01/10 01:54:10;;;;;;;0.95;0.70;;;;;;;0.84;100.00;92870.34;2053085;28;20030;-84
2023/01/10 01:55:12;;;;;;;2.38;0.60;;;;;;;0.83;100.00;92872.19;2053263;28;20031;-83
2023/01/10 01:56:21;;;;;;;0.57;0.40;;;;;;;1.04;100.00;92878.81;2059553;28;20056;-84
2023/01/10 01:57:27;;;;;;;4.28;0.52;;;;;;;0.94;100.00;92885.47;2061098;28;20022;-84
2023/01/10 01:58:37;;;;;;;1.35;0.40;;;;;;;0.86;100.00;92889.91;2064875;28;20030;-83
2023/01/10 01:59:46;;;;;;;0.73;0.40;;;;;;;0.95;100.00;92890.38;2063935;28;20027;-84
2023/01/10 02:00:47;;;;;;;1.65;0.60;;;;;;;1.19;100.00;92888.38;2057486;28;20121;-84
2023/01/10 02:01:51;;;;;;;1.17;0.30;;;;;;;1.26;100.00;92883.16;2048710;28;20023;-85
2023/01/10 02:02:56;;;;;;;0.60;0.40;;;;;;;1.28;100.00;92885.44;2059262;28;20023;-85
2023/01/10 02:04:06;;;;;;;0.85;0.35;;;;;;;1.35;100.00;92891.50;2055888;28;20113;-85
2023/01/10 02:05:10;;;;;;;1.00;0.50;;;;;;;1.21;100.00;92901.91;2058358;28;20034;-83
2023/01/10 02:06:12;;;;;;;0.40;0.40;;;;;;;1.09;100.00;92904.78;2063684;28;20030;-85
2023/01/10 02:07:14;;;;;;;0.68;0.30;;;;;;;1.15;100.00;92900.75;2048228;28;20027;-84
2023/01/10 02:08:15;;;;;;;0.57;0.32;;;;;;;1.00;100.00;92902.44;2048025;28;20031;-84
2023/01/10 02:09:25;;;;;;;0.63;0.38;;;;;;;1.06;100.00;92900.28;2055865;28;20037;-85
2023/01/10 02:10:38;;;;;;;0.20;0.20;;;;;;;0.76;100.00;92901.06;2057253;28;20544;-84
2023/01/10 02:11:39;;;;;;;1.25;0.30;;;;;;;0.81;100.00;92903.38;2051101;28;20055;-86
2023/01/10 02:12:41;;;;;;;0.57;0.30;;;;;;;0.86;100.00;92895.16;2048135;28;20034;-84
2023/01/10 02:13:44;;;;;;;0.20;0.20;;;;;;;0.65;100.00;92900.19;2056311;28;20019;-84
2023/01/10 02:14:49;;;;;;;0.30;0.20;;;;;;;0.85;100.00;92904.19;2056930;28;20031;-85
2023/01/10 02:15:50;;;;;;;0.75;0.75;;;;;;;0.66;100.00;92912.22;2056625;28;20093;-85
2023/01/10 02:18:12;;;;;;;;;;;;;;;0.42;100.00;92924.69;2141457;27;20186;-84
2023/01/10 02:19:57;;;;;;;0.30;0.30;;;;;;;0.26;100.00;92913.59;2139434;27;20251;-85
2023/01/10 02:21:22;;;;;;;1.65;0.40;;;;;;;0.28;100.00;92921.91;2130022;27;20027;-82
2023/01/10 02:22:51;;;;;;;0.30;0.30;;;;;;;0.47;100.00;92918.38;2133973;27;20485;-82
2023/01/10 02:26:27;;;;;;;0.55;0.30;;;;;;;0.58;100.00;92923.78;2129531;27;20015;-83
2023/01/10 02:27:50;;;;;;;1.23;0.43;;;;;;;0.46;100.00;92924.75;2127641;27;20030;-81
2023/01/10 02:29:26;;;;;;;1.90;0.22;;;;;;;0.60;100.00;92918.91;2115870;28;20395;-85
2023/01/10 02:30:27;;;;;;;0.30;0.30;;;;;;;0.53;100.00;92926.69;2131464;27;20487;-83
2023/01/10 02:31:43;;;;;;;0.90;0.28;;;;;;;0.44;100.00;92932.22;2121489;28;20028;-84
2023/01/10 02:32:50;;;;;;;0.57;0.30;;;;;;;0.56;100.00;92937.28;2115496;27;20028;-84
2023/01/10 02:34:10;;;;;;;1.85;0.30;;;;;;;0.65;100.00;92937.00;2123071;27;20045;-84
2023/01/10 02:35:24;;;;;;;0.95;0.40;;;;;;;0.30;100.00;92937.31;2127134;27;20027;-85
2023/01/10 02:36:28;;;;;;;0.35;0.30;;;;;;;0.29;100.00;92930.53;2127383;27;20031;-84
2023/01/10 02:37:54;;;;;;;1.50;0.40;;;;;;;0.58;100.00;92936.94;2118675;27;20026;-82
2023/01/10 02:39:23;;;;;;;0.30;0.30;;;;;;;0.48;100.00;92935.66;2132779;27;20027;-80
2023/01/10 02:40:39;;;;;;;0.40;0.40;;;;;;;0.37;100.00;92937.41;2134678;27;20463;-78
2023/01/10 02:41:55;;;;;;;0.65;0.30;;;;;;;0.29;100.00;92947.06;2140290;27;20399;-84
2023/01/10 02:43:11;;;;;;;0.25;0.25;;;;;;;0.15;100.00;92946.88;2129989;27;20034;-81
2023/01/10 02:44:35;;;;;;;1.77;0.40;;;;;;;0.20;100.00;92941.31;2126386;27;20187;-81
2023/01/10 02:45:43;;;;;;;0.40;0.30;;;;;;;0.20;100.00;92941.31;2121189;28;20039;-81
2023/01/10 02:46:47;;;;;;;1.15;0.30;;;;;;;0.15;100.00;92938.97;2122901;27;20353;-81
2023/01/10 02:47:48;;;;;;;0.40;0.30;;;;;;;0.24;100.00;92953.38;2130038;27;20019;-83
2023/01/10 02:48:51;;;;;;;0.90;0.90;;;;;;;0.26;100.00;92945.13;2124056;27;20019;-84
2023/01/10 02:49:51;;;;;;;0.40;0.30;;;;;;;0.30;100.00;92945.94;2121489;28;20031;-82
2023/01/10 02:51:00;;;;;;;1.05;0.55;;;;;;;0.19;100.00;92942.41;2112752;28;20023;-80
2023/01/10 02:52:12;;;;;;;1.20;0.32;;;;;;;0.52;100.00;92943.59;2121673;27;20080;-83
2023/01/10 02:53:26;;;;;;;0.30;0.30;;;;;;;0.68;100.00;92950.19;2127046;27;20072;-82
2023/01/10 02:54:29;;;;;;;2.50;0.57;;;;;;;0.78;100.00;92951.44;2118833;28;20070;-83
2023/01/10 02:55:58;;;;;;;0.40;0.40;;;;;;;0.62;100.00;92953.53;2121761;27;20115;-81
2023/01/10 02:57:24;;;;;;;1.85;0.50;;;;;;;0.56;100.00;92952.28;2114545;28;20065;-81
2023/01/10 02:58:31;;;;;;;2.10;1.23;;;;;;;0.67;100.00;92951.31;2120631;27;20027;-83
2023/01/10 02:59:56;;;;;;;5.35;1.20;;;;;;;0.47;100.00;92944.66;2124993;27;20023;-81
2023/01/10 03:01:09;;;;;;;2.80;0.98;;;;;;;0.35;100.00;92945.66;2121716;27;20027;-81
2023/01/10 03:02:57;;;;;;;5.10;0.98;;;;;;;0.28;100.00;92948.19;2119198;28;20404;-81
2023/01/10 03:03:57;;;;;;;7.15;1.38;;;;;;;0.37;100.00;92959.19;2104146;28;20040;-83
2023/01/10 03:05:22;;;;;;;4.75;1.02;;;;;;;0.49;100.00;92963.50;2095585;28;20052;-82
2023/01/10 03:06:55;;;;;;;7.13;1.08;;;;;;;0.52;100.00;92964.63;2119713;27;20375;-81
2023/01/10 03:08:26;;;;;;;10.25;1.98;;;;;;;0.52;100.00;92960.13;2121029;28;20051;-82
2023/01/10 03:09:39;;;;;;;11.35;2.95;;;;;;;0.36;100.00;92964.81;2125709;27;20015;-80
2023/01/10 03:10:51;;;;;;;11.68;1.75;;;;;;;0.57;100.00;92967.72;2130130;27;20026;-82
2023/01/10 03:12:08;;;;;;;5.45;1.38;;;;;;;0.47;100.00;92969.09;2124955;27;20031;-79
2023/01/10 03:13:21;;;;;;;3.95;1.25;;;;;;;0.46;100.00;92964.19;2124095;28;20015;-84
2023/01/10 03:14:26;;;;;;;13.65;2.25;;;;;;;0.42;100.00;92971.28;2123967;28;20023;-81
2023/01/10 03:15:33;;;;;;;6.05;1.65;;;;;;;0.41;100.00;92965.25;2124723;27;20049;-83
2023/01/10 03:16:36;;;;;;;7.72;1.50;;;;;;;0.47;100.00;92984.88;2121690;28;20065;-82
2023/01/10 03:17:40;;;;;;;10.77;1.98;;;;;;;0.32;100.00;92990.28;2105020;28;20032;-85
2023/01/10 03:18:57;;;;;;;12.10;2.33;;;;;;;0.43;100.00;92991.94;2106477;28;20032;-83
2023/01/10 03:20:01;;;;;;;11.55;2.15;;;;;;;0.37;100.00;92988.09;2120842;27;20031;-81
2023/01/10 03:21:05;;;;;;;11.95;2.13;;;;;;;0.32;100.00;92998.19;2113023;28;20407;-83
2023/01/10 03:22:09;;;;;;;8.20;1.98;;;;;;;0.33;100.00;93000.44;2107062;27;20024;-82
2023/01/10 03:23:12;;;;;;;18.88;2.42;;;;;;;0.24;100.00;93002.56;2129924;27;20383;-82
2023/01/10 03:24:17;;;;;;;14.68;1.80;;;;;;;0.43;100.00;93015.59;2121004;28;20170;-83
2023/01/10 03:25:22;;;;;;;9.30;1.77;;;;;;;0.41;100.00;92996.81;2106301;28;20119;-83
2023/01/10 03:26:31;;;;;;;14.75;2.20;;;;;;;0.43;100.00;93002.47;2117706;27;20027;-81
2023/01/10 03:27:42;;;;;;;10.25;1.95;;;;;;;0.35;100.00;93010.59;2131266;27;20026;-85
2023/01/10 03:28:51;;;;;;;12.18;1.80;;;;;;;0.40;100.00;93013.69;2126971;27;20058;-84
2023/01/10 03:30:00;;;;;;;14.93;2.20;;;;;;;0.29;100.00;93010.16;2115532;28;20066;-81
2023/01/10 03:31:21;;;;;;;8.75;1.70;;;;;;;0.30;100.00;93018.78;2115247;28;20031;-81
2023/01/10 03:32:26;;;;;;;17.83;2.92;;;;;;;0.42;100.00;93015.97;2105656;28;20061;-83
2023/01/10 03:33:31;;;;;;;7.72;1.70;;;;;;;0.60;100.00;93022.22;2111042;28;20028;-83
2023/01/10 03:34:33;;;;;;;7.72;1.70;;;;;;;0.50;100.00;93020.97;2115237;28;20027;-86
2023/01/10 03:36:00;;;;;;;12.50;2.13;;;;;;;0.43;100.00;93010.34;2106894;28;20024;-83
2023/01/10 03:37:21;;;;;;;10.98;1.95;;;;;;;0.34;100.00;93017.72;2103165;28;20061;-81
2023/01/10 03:38:35;;;;;;;10.07;2.05;;;;;;;0.28;100.00;93019.16;2109683;28;20472;-86
2023/01/10 03:39:56;;;;;;;10.77;2.10;;;;;;;0.57;100.00;93014.28;2110816;28;20055;-85
2023/01/10 03:41:12;;;;;;;9.50;2.15;;;;;;;0.64;100.00;93035.44;2105938;28;20020;-85
2023/01/10 03:44:42;;;;;;;6.32;1.75;;;;;;;0.54;100.00;93038.69;2114698;28;20024;-81
2023/01/10 03:45:50;;;;;;;9.95;2.28;;;;;;;0.76;100.00;93040.50;2120721;27;20023;-84
2023/01/10 03:47:14;;;;;;;5.28;1.45;;;;;;;0.70;100.00;93049.78;2116831;27;20019;-85
2023/01/10 03:48:16;;;;;;;12.85;1.90;;;;;;;0.70;100.00;93047.16;2107276;28;20030;-82
2023/01/10 03:49:19;;;;;;;8.13;2.20;;;;;;;0.75;100.00;93052.91;2101928;28;20036;-84
2023/01/10 03:50:23;;;;;;;9.43;1.90;;;;;;;0.62;100.00;93056.09;2107229;28;20032;-84
2023/01/10 03:51:26;;;;;;;13.05;2.55;;;;;;;0.42;100.00;93060.66;2110983;28;20473;-83
2023/01/10 03:52:29;;;;;;;13.60;1.90;;;;;;;0.50;100.00;93051.78;2106593;28;20020;-86
2023/01/10 03:53:33;;;;;;;19.35;2.75;;;;;;;0.49;100.00;93060.78;2090837;28;20079;-81
2023/01/10 03:54:34;;;;;;;11.10;2.20;;;;;;;0.53;100.00;93061.59;2090731;28;20029;-86
2023/01/10 03:55:36;;;;;;;11.05;2.08;;;;;;;0.47;100.00;93066.38;2106892;28;20079;-83
2023/01/10 03:56:48;;;;;;;13.07;2.47;;;;;;;0.61;100.00;93067.69;2117284;27;20027;-86
2023/01/10 03:57:49;;;;;;;11.52;2.05;;;;;;;0.48;100.00;93072.38;2116273;27;20015;-83
2023/01/10 03:58:50;;;;;;;7.35;2.08;;;;;;;0.38;100.00;93075.63;2123281;27;20039;-86
2023/01/10 03:59:56;;;;;;;11.38;2.00;;;;;;;0.27;100.00;93067.56;2106543;28;20024;-83
2023/01/10 04:00:57;;;;;;;7.03;2.15;;;;;;;0.61;100.00;93075.59;2100444;27;20122;-85
2023/01/10 04:01:58;;;;;;;14.57;2.80;;;;;;;0.56;100.00;93070.63;2115010;28;20023;-81
2023/01/10 04:02:59;;;;;;;6.90;2.10;;;;;;;0.52;100.00;93073.19;2105368;28;20052;-85
2023/01/10 04:04:00;;;;;;;9.55;2.08;;;;;;;0.55;100.00;93079.63;2099402;28;20052;-82
2023/01/10 04:05:10;;;;;;;8.57;1.65;;;;;;;0.62;100.00;93079.75;2113750;28;20023;-84
2023/01/10 04:06:11;;;;;;;15.65;2.78;;;;;;;0.75;100.00;93081.84;2109307;28;20020;-86
2023/01/10 04:07:12;;;;;;;10.90;1.90;;;;;;;0.68;100.00;93083.59;2106349;28;20956;-85
2023/01/10 04:08:13;;;;;;;13.13;2.20;;;;;;;0.63;100.00;93097.81;2108126;28;20095;-85
2023/01/10 04:09:14;;;;;;;10.70;2.03;;;;;;;0.64;100.00;93088.03;2117102;27;20030;-87
2023/01/10 04:10:15;;;;;;;13.40;2.40;;;;;;;0.59;100.00;93085.72;2101549;28;20713;-84
2023/01/10 04:11:16;;;;;;;9.95;2.15;;;;;;;0.39;100.00;93083.16;2114906;28;20059;-84
2023/01/10 04:12:17;;;;;;;12.68;2.58;;;;;;;0.56;100.00;93081.91;2106674;28;20028;-84
2023/01/10 04:13:18;;;;;;;7.65;2.00;;;;;;;0.57;100.00;93090.56;2106531;28;20111;-83
2023/01/10 04:14:19;;;;;;;14.52;1.80;;;;;;;0.41;100.00;93086.19;2098153;28;20031;-88
2023/01/10 04:15:20;;;;;;;13.38;2.15;;;;;;;0.56;100.00;93099.56;2106420;28;20020;-85
2023/01/10 04:16:21;;;;;;;13.13;1.90;;;;;;;0.63;100.00;93099.69;2106162;28;20091;-84
2023/01/10 04:17:22;;;;;;;10.38;1.98;;;;;;;0.71;100.00;93103.94;2114620;27;20022;-83
2023/01/10 04:18:23;;;;;;;8.55;1.77;;;;;;;0.61;100.00;93102.63;2110345;28;20090;-83
2023/01/10 04:19:24;;;;;;;10.35;2.20;;;;;;;0.54;100.00;93112.31;2102552;28;20028;-83
2023/01/10 04:20:25;;;;;;;8.93;2.05;;;;;;;0.41;100.00;93109.84;2115187;28;20107;-84
2023/01/10 04:21:26;;;;;;;7.95;1.65;;;;;;;0.35;100.00;93113.13;2110104;28;20036;-86
2023/01/10 04:22:27;;;;;;;5.00;1.45;;;;;;;0.38;100.00;93113.19;2106708;28;20784;-85
2023/01/10 04:23:28;;;;;;;6.35;1.70;;;;;;;0.38;100.00;93113.19;2110719;28;20456;-82
2023/01/10 04:24:29;;;;;;;8.27;2.35;;;;;;;0.48;100.00;93117.09;2111832;28;20510;-80
2023/01/10 04:25:37;;;;;;;7.40;1.60;;;;;;;0.43;100.00;93126.03;2123686;27;20034;-84
2023/01/10 04:26:38;;;;;;;9.95;1.45;;;;;;;0.47;100.00;93116.31;2115324;28;20130;-84
2023/01/10 04:27:39;;;;;;;11.57;1.50;;;;;;;0.52;100.00;93128.44;2106932;28;20106;-83
2023/01/10 04:28:40;;;;;;;14.50;1.70;;;;;;;0.69;100.00;93129.81;2100238;28;20028;-83
2023/01/10 04:29:41;;;;;;;6.57;1.90;;;;;;;0.63;100.00;93139.88;2109847;28;20085;-80
2023/01/10 04:30:42;;;;;;;9.70;1.50;;;;;;;0.71;100.00;93135.50;2103400;28;20024;-83
2023/01/10 04:31:43;;;;;;;7.30;1.88;;;;;;;0.68;100.00;93133.56;2098498;28;20061;-82
2023/01/10 04:32:44;;;;;;;9.02;1.80;;;;;;;0.42;100.00;93137.66;2091299;28;20096;-84
2023/01/10 04:33:45;;;;;;;7.63;1.67;;;;;;;0.34;100.00;93143.91;2106641;28;20101;-84
2023/01/10 04:34:46;;;;;;;12.05;1.63;;;;;;;0.44;100.00;93145.97;2106011;28;20864;-84
2023/01/10 04:35:48;;;;;;;10.98;1.50;;;;;;;0.56;100.00;93144.25;2114760;28;20036;-87
2023/01/10 04:36:49;;;;;;;8.75;1.48;;;;;;;0.46;100.00;93143.00;2115273;27;20057;-84
2023/01/10 04:37:50;;;;;;;11.25;2.40;;;;;;;0.47;100.00;93147.88;2123041;27;20059;-88
2023/01/10 04:38:52;;;;;;;7.20;1.45;;;;;;;0.50;100.00;93149.06;2097969;28;20028;-86
2023/01/10 04:39:53;;;;;;;8.93;1.42;;;;;;;0.66;100.00;93148.94;2106522;28;20070;-86
2023/01/10 04:40:55;;;;;;;7.28;1.55;;;;;;;0.45;100.00;93155.38;2096869;28;20021;-83
2023/01/10 04:41:56;;;;;;;12.25;2.03;;;;;;;0.49;100.00;93161.47;2115183;28;20560;-82
2023/01/10 04:42:57;;;;;;;9.25;1.48;;;;;;;0.51;100.00;93150.56;2114225;28;20031;-84
2023/01/10 04:43:58;;;;;;;11.00;1.98;;;;;;;0.49;100.00;93155.44;2115794;27;20020;-83
2023/01/10 04:44:59;;;;;;;9.32;1.63;;;;;;;0.33;100.00;93154.78;2113094;28;20034;-85
2023/01/10 04:46:00;;;;;;;6.80;1.73;;;;;;;0.20;100.00;93159.44;2106080;28;20043;-84
2023/01/10 04:47:01;;;;;;;4.20;1.55;;;;;;;0.12;100.00;93158.53;2107283;28;20119;-85
2023/01/10 04:48:03;;;;;;;5.55;1.55;;;;;;;0.08;100.00;93172.72;2099592;28;20055;-84
2023/01/10 04:49:04;;;;;;;8.10;1.70;;;;;;;0.17;100.00;93168.00;2097843;28;20020;-87
2023/01/10 04:50:06;;;;;;;7.38;1.42;;;;;;;0.19;100.00;93165.81;2106419;27;20069;-84
2023/01/10 04:51:06;;;;;;;12.32;2.45;;;;;;;0.19;100.00;93168.44;2121351;27;20023;-83
2023/01/10 04:52:24;;;;;;;7.45;1.50;;;;;;;0.18;100.00;93165.06;2111352;28;20027;-87
2023/01/10 04:53:25;;;;;;;8.32;1.58;;;;;;;0.27;100.00;93164.84;2106905;28;20429;-88
2023/01/10 04:54:26;;;;;;;12.13;3.85;;;;;;;0.25;100.00;93157.28;2097559;28;20032;-85
2023/01/10 04:55:27;;;;;;;5.00;1.70;;;;;;;0.50;100.00;93162.97;2106398;28;20046;-87
2023/01/10 04:56:28;;;;;;;7.55;1.65;;;;;;;0.50;100.00;93165.59;2109520;28;20500;-86
2023/01/10 04:57:29;;;;;;;9.90;1.88;;;;;;;0.53;100.00;93166.78;2097673;28;20031;-87
2023/01/10 04:58:35;;;;;;;8.52;2.10;;;;;;;0.43;100.00;93173.34;2093394;28;20032;-84
2023/01/10 04:59:36;;;;;;;8.95;2.00;;;;;;;0.38;100.00;93183.41;2098865;28;20051;-82
2023/01/10 05:00:37;;;;;;;5.93;1.60;;;;;;;0.52;100.00;93181.00;2106073;28;20065;-87
2023/01/10 05:01:38;;;;;;;5.28;1.80;;;;;;;0.37;100.00;93176.63;2106293;28;20035;-87
2023/01/10 05:02:42;;;;;;;10.25;2.03;;;;;;;0.29;100.00;93183.63;2114472;27;20047;-84
2023/01/10 05:03:45;;;;;;;8.32;2.40;;;;;;;0.29;100.00;93185.50;2109823;28;20531;-86
2023/01/10 05:04:46;;;;;;;8.10;1.70;;;;;;;0.60;100.00;93195.81;2114230;28;20114;-88
2023/01/10 05:05:47;;;;;;;12.73;2.08;;;;;;;0.47;100.00;93194.47;2115388;27;20069;-86
2023/01/10 05:06:48;;;;;;;6.03;1.60;;;;;;;0.65;100.00;93194.75;2122469;27;20022;-84
2023/01/10 05:07:52;;;;;;;5.90;1.85;;;;;;;0.60;100.00;93197.69;2119036;27;20406;-86
2023/01/10 05:08:53;;;;;;;7.93;1.90;;;;;;;0.53;100.00;93206.22;2114503;28;20628;-89
2023/01/10 05:09:54;;;;;;;9.55;1.85;;;;;;;0.57;100.00;93207.06;2114928;27;20020;-84
2023/01/10 05:10:55;;;;;;;6.45;2.10;;;;;;;0.67;100.00;93209.09;2122726;27;20041;-85
2023/01/10 05:11:56;;;;;;;9.75;1.98;;;;;;;0.64;100.00;93214.28;2098349;28;20017;-82
2023/01/10 05:13:07;;;;;;;15.73;1.80;;;;;;;0.65;100.00;93215.78;2105605;28;20042;-86
2023/01/10 05:14:08;;;;;;;9.43;1.80;;;;;;;0.55;100.00;93219.00;2102808;27;20086;-86
2023/01/10 05:15:09;;;;;;;11.10;1.98;;;;;;;0.55;100.00;93222.41;2112034;28;20077;-86
2023/01/10 05:16:10;;;;;;;10.00;1.90;;;;;;;0.45;100.00;93220.34;2108855;27;20027;-85
2023/01/10 05:17:11;;;;;;;9.20;1.95;;;;;;;0.32;100.00;93224.25;2120385;27;20411;-84
2023/01/10 05:18:12;;;;;;;8.15;1.80;;;;;;;0.37;100.00;93231.84;2117457;27;20047;-86
2023/01/10 05:19:13;;;;;;;11.30;2.10;;;;;;;0.29;100.00;93227.56;2111602;28;20085;-88
2023/01/10 05:20:14;;;;;;;7.15;1.90;;;;;;;0.29;100.00;93227.56;2097667;28;20027;-86
2023/01/10 05:21:15;;;;;;;11.13;2.08;;;;;;;0.39;100.00;93240.13;2109352;28;20136;-88
2023/01/10 05:22:16;;;;;;;9.00;2.30;;;;;;;0.43;100.00;93236.47;2106301;28;20028;-84
2023/01/10 05:23:17;;;;;;;4.95;1.38;;;;;;;0.31;100.00;93235.84;2098134;28;20676;-89
2023/01/10 05:24:18;;;;;;;8.80;1.48;;;;;;;0.28;100.00;93236.56;2098153;28;20354;-87
2023/01/10 05:25:19;;;;;;;6.55;1.10;;;;;;;0.29;100.00;93245.97;2098046;28;20210;-86
2023/01/10 05:26:22;;;;;;;8.00;1.65;;;;;;;0.25;100.00;93241.38;2106293;28;20032;-86
2023/01/10 05:27:23;;;;;;;8.63;1.48;;;;;;;0.41;100.00;93235.31;2102059;28;20035;-83
2023/01/10 05:28:24;;;;;;;9.43;1.60;;;;;;;0.32;100.00;93240.78;2094257;28;20056;-88
2023/01/10 05:29:24;;;;;;;10.35;1.45;;;;;;;0.31;100.00;93233.22;2106397;28;20028;-84
2023/01/10 05:30:25;;;;;;;6.95;2.03;;;;;;;0.57;100.00;93232.56;2106503;28;20020;-87
2023/01/10 05:31:26;;;;;;;7.13;1.60;;;;;;;0.80;100.00;93233.34;2106219;28;20031;-87
2023/01/10 05:32:28;;;;;;;6.10;1.23;;;;;;;0.82;100.00;93228.50;2123291;27;20018;-82
2023/01/10 05:33:30;;;;;;;7.57;1.58;;;;;;;0.75;100.00;93239.66;2114899;28;20103;-85
2023/01/10 05:34:31;;;;;;;10.23;1.52;;;;;;;0.62;100.00;93238.31;2111576;28;20031;-85
2023/01/10 05:35:33;;;;;;;12.23;1.35;;;;;;;0.72;100.00;93240.34;2106188;28;20031;-85
2023/01/10 05:36:34;;;;;;;7.28;2.00;;;;;;;0.63;100.00;93239.84;2114915;28;20059;-85
2023/01/10 05:37:35;;;;;;;9.75;1.60;;;;;;;0.74;100.00;93232.88;2106034;28;20071;-86
2023/01/10 05:38:36;;;;;;;8.00;1.55;;;;;;;0.71;100.00;93244.09;2097721;28;20381;-84
2023/01/10 05:39:38;;;;;;;7.18;1.33;;;;;;;0.78;100.00;93240.81;2106209;28;20035;-88
2023/01/10 05:40:39;;;;;;;19.92;3.53;;;;;;;0.70;100.00;93231.28;2112632;28;20028;-83
2023/01/10 05:41:40;;;;;;;7.45;1.67;;;;;;;0.56;100.00;93231.06;2107753;28;20036;-88
2023/01/10 05:42:41;;;;;;;13.07;2.17;;;;;;;0.50;100.00;93233.97;2121544;27;20110;-88
2023/01/10 05:43:42;;;;;;;12.13;2.30;;;;;;;0.58;100.00;93234.09;2109790;28;20047;-86
2023/01/10 05:44:43;;;;;;;5.35;1.83;;;;;;;0.63;100.00;93239.06;2107079;28;20023;-85
2023/01/10 05:45:44;;;;;;;7.78;1.70;;;;;;;0.49;100.00;93236.97;2113294;28;20491;-86
2023/01/10 05:46:45;;;;;;;10.18;1.52;;;;;;;0.42;100.00;93234.19;2102718;28;20017;-85
2023/01/10 05:47:46;;;;;;;20.92;2.47;;;;;;;0.51;100.00;93239.97;2101797;28;20020;-88
2023/01/10 05:48:47;;;;;;;9.68;1.60;;;;;;;0.43;100.00;93235.69;2105994;28;20035;-88
2023/01/10 05:49:48;;;;;;;7.63;1.80;;;;;;;0.37;100.00;93237.88;2116955;28;20020;-84
2023/01/10 05:50:52;;;;;;;9.20;1.60;;;;;;;0.38;100.00;93228.09;2111298;28;20016;-83
2023/01/10 05:51:52;;;;;;;9.50;2.45;;;;;;;0.34;100.00;93241.19;2119312;28;20019;-85
2023/01/10 05:52:53;;;;;;;7.80;1.48;;;;;;;0.43;100.00;93239.09;2101716;28;20087;-86
2023/01/10 05:53:56;;;;;;;8.30;2.15;;;;;;;0.49;100.00;93239.59;2101319;28;20028;-82
2023/01/10 05:54:57;;;;;;;19.00;2.15;;;;;;;0.49;100.00;93237.72;2109221;28;20016;-83